Time;durP1;ratioP1;P1;durP2;ratioP2;P2;SDS_P1;SDS_P2;PMS_P1;PMS_P2;Temp;Humidity;BMP_temperature;BMP_pressure;BME280_temperature;BME280_humidity;BME280_pressure;Samples;Min_cycle;Max_cycle;Signal;HPM_P1;HPM_P2
2022/05/06 00:01:45;;;;;;;9.83;6.87;;;17.70;99.90;;;;;;5118671;28;20432;-88
2022/05/06 00:04:12;;;;;;;8.50;6.43;;;17.70;99.90;;;;;;5100650;28;20184;-96
2022/05/06 00:06:38;;;;;;;7.47;5.80;;;17.60;99.90;;;;;;5101753;28;20942;-89
2022/05/06 00:09:04;;;;;;;9.97;6.70;;;17.60;99.90;;;;;;5120446;28;20418;-88
2022/05/06 00:11:31;;;;;;;10.73;7.00;;;17.60;99.90;;;;;;5060446;28;20540;-88
2022/05/06 00:13:57;;;;;;;8.53;6.70;;;17.60;99.90;;;;;;5015068;28;20437;-95
2022/05/06 00:16:25;;;;;;;7.37;6.30;;;17.50;99.90;;;;;;5034158;28;20520;-88
2022/05/06 00:18:51;;;;;;;8.30;6.50;;;17.50;99.90;;;;;;5018113;28;20503;-88
2022/05/06 00:21:17;;;;;;;9.97;6.57;;;17.40;99.90;;;;;;5032981;28;20914;-96
2022/05/06 00:23:43;;;;;;;9.73;5.60;;;17.40;99.90;;;;;;5015497;28;20471;-88
2022/05/06 00:26:09;;;;;;;8.13;5.80;;;17.40;99.90;;;;;;5036570;28;20414;-96
2022/05/06 00:28:36;;;;;;;6.53;5.80;;;17.30;99.90;;;;;;5052542;28;20322;-96
2022/05/06 00:31:02;;;;;;;14.23;7.97;;;17.30;99.90;;;;;;5034238;28;20857;-87
2022/05/06 00:33:29;;;;;;;8.43;6.97;;;17.20;99.90;;;;;;5054414;28;20442;-95
2022/05/06 00:35:56;;;;;;;8.80;6.33;;;17.20;99.90;;;;;;5037421;28;20416;-96
2022/05/06 00:38:22;;;;;;;7.23;6.50;;;17.20;99.90;;;;;;5035747;28;20475;-96
2022/05/06 00:40:49;;;;;;;10.27;7.47;;;17.20;99.90;;;;;;5052490;28;20406;-88
2022/05/06 00:43:15;;;;;;;10.23;7.80;;;17.20;99.90;;;;;;5035310;28;20447;-96
2022/05/06 00:45:53;;;;;;;7.17;6.30;;;17.10;99.90;;;;;;5035287;28;20411;-88
2022/05/06 00:48:22;;;;;;;10.53;7.73;;;17.10;99.90;;;;;;5036177;28;20211;-89
2022/05/06 00:50:49;;;;;;;12.00;7.07;;;17.10;99.90;;;;;;5035976;28;20419;-96
2022/05/06 00:53:15;;;;;;;9.20;7.40;;;17.10;99.90;;;;;;5035249;28;20458;-88
2022/05/06 00:55:42;;;;;;;8.37;6.67;;;17.10;99.90;;;;;;5034778;28;20531;-89
2022/05/06 00:58:09;;;;;;;9.00;7.17;;;17.00;99.90;;;;;;5034688;28;20475;-95
2022/05/06 01:00:34;;;;;;;10.17;7.20;;;17.00;99.90;;;;;;5053090;28;20498;-94
2022/05/06 01:03:00;;;;;;;10.03;6.70;;;17.00;99.90;;;;;;5037620;28;20547;-96
2022/05/06 01:05:27;;;;;;;11.70;7.30;;;17.00;99.90;;;;;;5035413;28;20660;-88
2022/05/06 01:07:53;;;;;;;11.17;7.80;;;17.00;99.90;;;;;;5053229;28;20544;-96
2022/05/06 01:10:21;;;;;;;6.83;5.60;;;17.00;99.90;;;;;;5035566;28;20490;-88
2022/05/06 01:12:48;;;;;;;7.70;6.27;;;17.00;99.90;;;;;;5036957;28;20447;-88
2022/05/06 01:15:22;;;;;;;10.30;6.83;;;16.90;99.90;;;;;;5038263;28;20483;-89
2022/05/06 01:17:48;;;;;;;8.73;6.63;;;16.90;99.90;;;;;;5040784;28;20846;-87
2022/05/06 01:20:16;;;;;;;7.47;6.30;;;16.90;99.90;;;;;;5050380;28;20447;-88
2022/05/06 01:23:00;;;;;;;9.27;7.67;;;16.90;99.90;;;;;;5040948;28;20459;-96
2022/05/06 01:25:27;;;;;;;10.17;6.70;;;16.90;99.90;;;;;;5039692;28;20403;-96
2022/05/06 01:28:06;;;;;;;9.00;6.63;;;16.90;99.90;;;;;;5015383;28;21026;-95
2022/05/06 01:30:40;;;;;;;8.13;5.93;;;16.80;99.90;;;;;;5014081;28;20404;-89
2022/05/06 01:33:08;;;;;;;7.70;6.90;;;16.80;99.90;;;;;;5013233;28;20467;-88
2022/05/06 01:35:41;;;;;;;9.77;6.77;;;16.90;99.90;;;;;;5013526;28;20952;-96
2022/05/06 01:38:08;;;;;;;8.70;7.60;;;16.80;99.90;;;;;;5031748;28;20488;-88
2022/05/06 01:40:52;;;;;;;10.30;7.00;;;16.80;99.90;;;;;;5032280;28;20408;-88
2022/05/06 01:43:20;;;;;;;8.00;6.77;;;16.80;99.90;;;;;;5031057;28;20528;-88
2022/05/06 01:45:48;;;;;;;10.43;6.70;;;16.80;99.90;;;;;;5030030;28;20419;-88
2022/05/06 01:48:16;;;;;;;14.27;7.10;;;16.80;99.90;;;;;;5031598;28;20534;-96
2022/05/06 01:50:43;;;;;;;10.80;7.90;;;16.80;99.90;;;;;;5031061;28;20404;-88
2022/05/06 01:53:09;;;;;;;7.97;6.47;;;16.80;99.90;;;;;;5031298;28;20435;-88
2022/05/06 01:55:36;;;;;;;9.40;7.23;;;16.80;99.90;;;;;;5013501;28;20932;-95
2022/05/06 01:58:04;;;;;;;11.00;6.70;;;16.80;99.90;;;;;;5014287;28;20494;-88
2022/05/06 02:00:29;;;;;;;9.10;6.13;;;16.80;99.90;;;;;;5014418;28;20412;-96
2022/05/06 02:02:56;;;;;;;9.00;6.63;;;16.70;99.90;;;;;;5031768;28;20499;-88
2022/05/06 02:05:22;;;;;;;9.20;7.27;;;16.70;99.90;;;;;;5014215;28;20419;-90
2022/05/06 02:07:50;;;;;;;12.03;7.40;;;16.70;99.90;;;;;;5031498;28;20443;-96
2022/05/06 02:10:18;;;;;;;7.93;6.40;;;16.70;99.90;;;;;;5013662;28;20532;-96
2022/05/06 02:12:48;;;;;;;10.33;7.83;;;16.70;99.90;;;;;;5048869;28;20447;-88
2022/05/06 02:15:16;;;;;;;9.10;6.53;;;16.70;99.90;;;;;;5053366;28;20919;-95
2022/05/06 02:17:42;;;;;;;11.37;7.40;;;16.60;99.90;;;;;;5051996;28;20491;-88
2022/05/06 02:20:10;;;;;;;10.70;8.00;;;16.60;99.90;;;;;;5035887;28;20406;-88
2022/05/06 02:22:37;;;;;;;10.60;7.10;;;16.50;99.90;;;;;;5050195;28;20207;-90
2022/05/06 02:25:09;;;;;;;7.93;6.63;;;16.50;99.90;;;;;;5050715;28;20411;-88
2022/05/06 02:27:36;;;;;;;8.50;6.43;;;16.50;99.90;;;;;;5054527;28;20446;-89
2022/05/06 02:35:30;;;;;;;8.70;6.50;;;16.50;99.90;;;;;;5055468;28;20390;-95
2022/05/06 02:37:56;;;;;;;8.63;6.00;;;16.50;99.90;;;;;;5038807;28;20569;-88
2022/05/06 02:40:22;;;;;;;7.83;6.77;;;16.40;99.90;;;;;;5056638;27;20486;-93
2022/05/06 02:42:47;;;;;;;8.23;6.00;;;16.40;99.90;;;;;;5038532;28;20198;-95
2022/05/06 02:45:13;;;;;;;7.17;5.67;;;16.40;99.90;;;;;;5055494;28;20166;-95
2022/05/06 02:47:39;;;;;;;7.00;6.30;;;16.40;99.90;;;;;;5039352;28;20221;-88
2022/05/06 02:50:05;;;;;;;7.70;6.33;;;16.40;99.90;;;;;;5055290;28;20181;-95
2022/05/06 02:52:31;;;;;;;11.13;7.07;;;16.40;99.90;;;;;;5056364;28;20914;-90
2022/05/06 02:54:57;;;;;;;11.70;6.20;;;16.40;99.90;;;;;;5055978;28;20488;-88
2022/05/06 02:57:22;;;;;;;9.30;6.67;;;16.40;99.90;;;;;;5038686;28;20718;-89
2022/05/06 02:59:48;;;;;;;6.73;5.57;;;16.40;99.90;;;;;;5065785;28;20181;-88
2022/05/06 03:02:14;;;;;;;7.77;6.33;;;16.40;99.90;;;;;;5036216;28;20205;-96
2022/05/06 03:04:41;;;;;;;7.47;5.97;;;16.40;99.90;;;;;;5055938;28;20642;-88
2022/05/06 03:07:08;;;;;;;7.70;5.60;;;16.40;99.90;;;;;;5036027;28;20591;-95
2022/05/06 03:09:34;;;;;;;10.80;6.67;;;16.40;99.90;;;;;;5035766;28;20418;-95
2022/05/06 03:12:00;;;;;;;7.60;6.00;;;16.40;99.90;;;;;;5053199;28;20513;-87
2022/05/06 03:14:26;;;;;;;8.17;6.20;;;16.40;99.90;;;;;;5036858;28;20512;-94
2022/05/06 03:16:52;;;;;;;7.77;6.20;;;16.40;99.90;;;;;;5036156;28;20446;-96
2022/05/06 03:19:17;;;;;;;7.40;5.97;;;16.40;99.90;;;;;;5036056;28;20182;-87
2022/05/06 03:21:51;;;;;;;7.23;5.73;;;16.40;99.90;;;;;;5036153;28;20210;-95
2022/05/06 03:24:17;;;;;;;7.60;6.80;;;16.50;99.90;;;;;;5034898;28;20615;-96
2022/05/06 03:26:43;;;;;;;11.60;6.60;;;16.50;99.90;;;;;;5038087;28;20452;-88
2022/05/06 03:29:09;;;;;;;9.17;6.73;;;16.50;99.90;;;;;;5013754;28;20494;-87
2022/05/06 03:31:36;;;;;;;7.07;5.87;;;16.50;99.90;;;;;;5012490;28;20301;-89
2022/05/06 03:34:05;;;;;;;9.20;6.57;;;16.50;99.90;;;;;;5014002;28;20455;-88
2022/05/06 03:36:33;;;;;;;7.93;6.30;;;16.60;99.90;;;;;;5013630;28;20421;-96
2022/05/06 03:39:00;;;;;;;11.90;6.77;;;16.60;99.90;;;;;;5013056;28;20981;-96
2022/05/06 03:41:25;;;;;;;6.23;5.63;;;16.60;99.90;;;;;;5015793;28;20953;-88
2022/05/06 03:43:51;;;;;;;6.00;5.40;;;16.60;99.90;;;;;;5013752;28;20462;-94
2022/05/06 03:46:17;;;;;;;6.23;5.63;;;16.60;99.90;;;;;;5014757;28;20167;-96
2022/05/06 03:48:42;;;;;;;8.83;6.30;;;16.60;99.90;;;;;;5017055;28;20255;-88
2022/05/06 03:51:23;;;;;;;11.07;6.83;;;16.60;99.90;;;;;;5016583;28;20254;-96
2022/05/06 03:53:50;;;;;;;9.27;6.20;;;16.60;99.90;;;;;;5021421;28;20175;-96
2022/05/06 03:56:16;;;;;;;9.53;6.67;;;16.50;99.90;;;;;;5022571;28;20416;-88
2022/05/06 03:58:42;;;;;;;11.50;6.83;;;16.50;99.90;;;;;;5029913;28;20496;-88
2022/05/06 04:01:07;;;;;;;8.80;6.97;;;16.50;99.90;;;;;;5021200;28;20175;-88
2022/05/06 04:03:34;;;;;;;7.70;6.10;;;16.40;99.90;;;;;;5012683;28;20442;-88
2022/05/06 04:06:00;;;;;;;10.47;7.23;;;16.40;99.90;;;;;;5027822;28;20186;-88
2022/05/06 04:08:25;;;;;;;9.40;7.03;;;16.40;99.90;;;;;;5012043;28;20436;-96
2022/05/06 04:10:51;;;;;;;13.73;9.20;;;16.40;99.90;;;;;;5011458;28;20230;-96
2022/05/06 04:13:18;;;;;;;10.17;7.37;;;16.40;99.90;;;;;;5011542;28;20656;-96
2022/05/06 04:15:48;;;;;;;9.17;7.60;;;16.40;99.90;;;;;;5011501;28;20179;-95
2022/05/06 04:18:14;;;;;;;11.40;7.77;;;16.50;99.90;;;;;;5019708;28;20480;-88
2022/05/06 04:23:30;;;;;;;8.37;7.07;;;16.40;99.90;;;;;;5013764;28;20797;-88
2022/05/06 04:26:00;;;;;;;8.70;7.13;;;16.40;99.90;;;;;;5016092;28;20417;-96
2022/05/06 04:28:27;;;;;;;8.40;6.70;;;16.40;99.90;;;;;;5035095;28;20451;-96
2022/05/06 04:30:53;;;;;;;10.00;7.90;;;16.40;99.90;;;;;;5053020;28;20418;-89
2022/05/06 04:33:21;;;;;;;10.43;7.47;;;16.40;99.90;;;;;;5035620;28;20480;-89
2022/05/06 04:35:47;;;;;;;8.13;6.23;;;16.30;99.90;;;;;;5053700;28;20442;-88
2022/05/06 04:38:12;;;;;;;10.83;7.80;;;16.30;99.90;;;;;;5053790;28;20516;-88
2022/05/06 04:40:40;;;;;;;9.37;7.13;;;16.30;99.90;;;;;;5051979;28;20415;-95
2022/05/06 04:43:06;;;;;;;8.00;7.13;;;16.30;99.90;;;;;;5053431;28;20651;-88
2022/05/06 04:45:45;;;;;;;9.40;7.53;;;16.30;99.90;;;;;;5053719;28;20891;-95
2022/05/06 04:48:11;;;;;;;8.13;6.43;;;16.30;99.90;;;;;;5053368;28;20438;-96
2022/05/06 04:50:38;;;;;;;10.70;7.40;;;16.30;99.90;;;;;;5054839;28;20442;-96
2022/05/06 04:53:08;;;;;;;11.00;7.87;;;16.40;99.90;;;;;;5054611;28;20495;-96
2022/05/06 04:55:39;;;;;;;8.93;7.00;;;16.30;99.90;;;;;;5036710;28;20459;-88
2022/05/06 04:58:06;;;;;;;9.60;6.50;;;16.40;99.90;;;;;;5041397;28;20482;-88
2022/05/06 05:00:32;;;;;;;9.20;7.30;;;16.40;99.90;;;;;;5031760;28;20415;-96
2022/05/06 05:02:59;;;;;;;8.37;7.10;;;16.40;99.90;;;;;;5049631;28;20426;-89
2022/05/06 05:05:25;;;;;;;11.27;7.70;;;16.50;99.90;;;;;;5053970;28;20420;-96
2022/05/06 05:07:52;;;;;;;11.27;7.93;;;16.50;99.90;;;;;;5053159;28;20455;-88
2022/05/06 05:10:17;;;;;;;9.30;7.77;;;16.60;99.90;;;;;;5033678;28;20473;-96
2022/05/06 05:12:43;;;;;;;9.27;7.30;;;16.60;99.90;;;;;;5034539;28;20450;-88
2022/05/06 05:15:10;;;;;;;8.93;6.83;;;16.60;99.90;;;;;;5024200;28;20548;-89
2022/05/06 05:17:36;;;;;;;9.70;7.00;;;16.60;99.90;;;;;;5037558;28;20215;-96
2022/05/06 05:20:03;;;;;;;10.70;7.17;;;16.60;99.90;;;;;;5032385;28;20407;-87
2022/05/06 05:22:28;;;;;;;8.90;6.83;;;16.60;99.90;;;;;;5032027;28;20538;-96
2022/05/06 05:24:54;;;;;;;10.13;7.00;;;16.70;99.90;;;;;;5031538;28;20400;-88
2022/05/06 05:27:20;;;;;;;8.13;6.70;;;16.70;99.90;;;;;;5036264;28;20508;-88
2022/05/06 05:29:46;;;;;;;7.73;6.90;;;16.70;99.90;;;;;;5109077;28;20206;-95
2022/05/06 05:32:12;;;;;;;9.13;6.27;;;16.70;99.90;;;;;;5125996;28;20478;-89
2022/05/06 05:34:40;;;;;;;9.67;7.33;;;16.70;99.90;;;;;;5115618;28;20818;-94
2022/05/06 05:37:06;;;;;;;9.57;6.70;;;16.80;99.90;;;;;;5116826;28;20435;-95
2022/05/06 05:39:32;;;;;;;8.67;7.40;;;16.80;99.90;;;;;;5116413;28;20419;-96
2022/05/06 05:41:57;;;;;;;10.70;6.80;;;16.80;99.90;;;;;;5117083;28;20431;-88
2022/05/06 05:49:51;;;;;;;9.23;7.00;;;16.90;99.90;;;;;;5105669;27;21035;-96
2022/05/06 05:52:17;;;;;;;9.07;6.57;;;16.90;99.90;;;;;;5050782;28;20455;-87
2022/05/06 05:54:43;;;;;;;10.03;6.53;;;17.00;99.90;;;;;;5034853;28;20193;-96
2022/05/06 05:57:08;;;;;;;7.40;6.40;;;17.00;99.90;;;;;;5028442;27;20206;-96
2022/05/06 05:59:34;;;;;;;10.40;7.20;;;17.00;99.90;;;;;;5099546;28;20238;-94
2022/05/06 06:02:04;;;;;;;8.57;6.73;;;17.10;99.90;;;;;;5048384;27;20199;-88
2022/05/06 06:04:29;;;;;;;7.30;6.60;;;17.10;99.90;;;;;;5078274;27;20183;-88
2022/05/06 06:06:56;;;;;;;8.00;6.70;;;17.10;99.90;;;;;;5056481;27;20956;-88
2022/05/06 06:09:22;;;;;;;9.53;7.30;;;17.20;99.90;;;;;;5043926;28;20183;-96
2022/05/06 06:11:49;;;;;;;8.70;7.00;;;17.20;99.90;;;;;;5104638;27;20527;-96
2022/05/06 06:14:16;;;;;;;8.73;7.00;;;17.30;99.90;;;;;;5051030;28;20423;-96
2022/05/06 06:16:43;;;;;;;8.27;6.40;;;17.30;99.90;;;;;;5029789;28;20447;-96
2022/05/06 06:19:08;;;;;;;7.20;5.73;;;17.30;99.90;;;;;;5012953;28;20598;-96
2022/05/06 06:21:34;;;;;;;7.30;5.93;;;17.40;99.90;;;;;;5017276;27;20423;-88
2022/05/06 06:24:00;;;;;;;7.37;6.33;;;17.40;99.90;;;;;;5116778;27;20411;-88
2022/05/06 06:26:27;;;;;;;6.93;5.40;;;17.50;99.90;;;;;;5098470;28;20268;-88
2022/05/06 06:28:52;;;;;;;8.40;5.37;;;17.50;99.90;;;;;;5047786;28;20503;-95
2022/05/06 06:31:18;;;;;;;7.43;6.17;;;17.60;99.90;;;;;;5109078;27;20508;-96
2022/05/06 06:33:44;;;;;;;7.63;5.90;;;17.60;99.90;;;;;;5128091;27;20211;-94
2022/05/06 06:36:10;;;;;;;7.23;6.40;;;17.70;99.90;;;;;;5031520;28;20183;-87
2022/05/06 06:38:36;;;;;;;7.80;5.23;;;17.70;99.90;;;;;;5037795;28;20214;-95
2022/05/06 06:41:03;;;;;;;8.00;5.87;;;17.80;99.90;;;;;;5041342;28;20403;-90
2022/05/06 06:43:30;;;;;;;6.97;5.77;;;17.80;99.90;;;;;;5030607;28;20422;-89
2022/05/06 06:45:56;;;;;;;8.27;6.20;;;17.90;99.90;;;;;;5017853;28;20436;-96
2022/05/06 06:48:24;;;;;;;6.63;6.03;;;17.90;99.90;;;;;;5029662;27;20494;-88
2022/05/06 06:50:52;;;;;;;5.60;5.10;;;18.00;99.90;;;;;;5009260;28;20959;-96
2022/05/06 06:53:19;;;;;;;7.20;5.80;;;18.00;99.90;;;;;;4996937;28;20497;-96
2022/05/06 06:55:45;;;;;;;9.07;6.30;;;18.10;99.90;;;;;;5014515;28;20473;-95
2022/05/06 06:58:11;;;;;;;6.00;5.40;;;18.20;99.90;;;;;;5016650;28;20490;-96
2022/05/06 07:00:37;;;;;;;6.23;5.63;;;18.20;99.90;;;;;;5034342;28;20900;-94
2022/05/06 07:03:03;;;;;;;8.90;5.53;;;18.20;99.90;;;;;;5046974;27;20459;-96
2022/05/06 07:05:29;;;;;;;8.00;6.03;;;18.30;99.90;;;;;;5023125;28;20432;-88
2022/05/06 07:13:24;;;;;;;5.83;5.23;;;18.40;99.90;;;;;;5036073;27;20459;-96
2022/05/06 07:15:50;;;;;;;6.37;5.57;;;18.40;99.90;;;;;;5017098;28;20454;-95
2022/05/06 07:18:15;;;;;;;6.10;5.50;;;18.50;99.90;;;;;;5003731;28;20525;-88
2022/05/06 07:20:42;;;;;;;7.70;5.63;;;18.50;99.90;;;;;;5003393;28;20698;-88
2022/05/06 07:23:11;;;;;;;8.40;5.87;;;18.60;99.90;;;;;;5011653;28;20212;-96
2022/05/06 07:25:37;;;;;;;6.80;5.97;;;18.70;99.90;;;;;;5029707;28;20494;-96
2022/05/06 07:28:04;;;;;;;7.13;5.17;;;18.80;99.90;;;;;;5009896;28;20468;-96
2022/05/06 07:30:30;;;;;;;7.80;5.73;;;18.80;99.90;;;;;;5011651;28;20423;-92
2022/05/06 07:32:56;;;;;;;6.30;5.70;;;18.90;99.90;;;;;;5016924;28;20491;-91
2022/05/06 07:35:21;;;;;;;6.30;5.13;;;19.00;99.90;;;;;;5013703;28;20188;-92
2022/05/06 07:37:47;;;;;;;5.90;5.23;;;19.10;99.90;;;;;;5032945;28;20302;-92
2022/05/06 07:40:14;;;;;;;6.10;5.50;;;19.20;99.90;;;;;;4999616;28;20184;-90
2022/05/06 07:42:41;;;;;;;6.93;5.40;;;19.30;99.90;;;;;;5014565;28;20485;-91
2022/05/06 07:45:07;;;;;;;7.87;5.60;;;19.30;99.90;;;;;;5012863;28;20446;-91
2022/05/06 07:47:33;;;;;;;7.97;5.97;;;19.40;99.90;;;;;;5013802;28;20489;-92
2022/05/06 07:49:59;;;;;;;6.03;5.43;;;19.50;99.90;;;;;;5014641;28;20945;-91
2022/05/06 07:52:25;;;;;;;6.13;5.30;;;19.50;99.90;;;;;;5000111;28;20520;-91
2022/05/06 07:54:51;;;;;;;6.60;5.63;;;19.60;99.90;;;;;;5011246;28;20182;-91
2022/05/06 07:57:17;;;;;;;7.50;6.30;;;19.60;99.90;;;;;;5000331;28;20210;-92
2022/05/06 07:59:43;;;;;;;5.80;5.20;;;19.70;99.90;;;;;;5004068;28;20186;-91
2022/05/06 08:04:52;;;;;;;5.73;5.00;;;19.90;99.90;;;;;;5062985;27;20421;-92
2022/05/06 08:07:18;;;;;;;4.63;4.20;;;20.00;99.90;;;;;;5022867;28;20458;-92
2022/05/06 08:09:44;;;;;;;5.73;5.23;;;20.00;99.90;;;;;;5019791;28;20185;-90
2022/05/06 08:12:10;;;;;;;6.03;4.80;;;20.10;99.90;;;;;;5022330;27;20246;-92
2022/05/06 08:14:36;;;;;;;5.33;4.83;;;20.10;99.90;;;;;;5043780;28;20423;-90
2022/05/06 08:17:06;;;;;;;5.47;4.97;;;20.20;99.90;;;;;;5011686;28;20522;-91
2022/05/06 08:19:33;;;;;;;5.30;4.77;;;20.30;99.90;;;;;;5012158;28;20423;-91
2022/05/06 08:21:58;;;;;;;5.40;4.87;;;20.30;99.90;;;;;;5087108;27;20446;-92
2022/05/06 08:24:24;;;;;;;5.13;4.63;;;20.40;99.90;;;;;;5032084;28;20441;-90
2022/05/06 08:26:50;;;;;;;5.90;4.60;;;20.50;99.90;;;;;;5015551;27;20217;-92
2022/05/06 08:29:16;;;;;;;6.23;4.30;;;20.50;99.90;;;;;;5056003;28;20450;-90
2022/05/06 08:31:42;;;;;;;6.30;5.03;;;20.60;99.90;;;;;;5029129;28;20547;-91
2022/05/06 08:34:10;;;;;;;6.03;4.50;;;20.70;99.90;;;;;;5010892;28;20171;-93
2022/05/06 08:36:41;;;;;;;4.97;4.43;;;20.80;99.90;;;;;;4995268;28;20530;-93
2022/05/06 08:39:08;;;;;;;4.30;3.90;;;20.80;99.90;;;;;;4994629;28;20456;-94
2022/05/06 08:41:37;;;;;;;6.43;4.30;;;20.90;99.90;;;;;;5066726;28;20430;-92
2022/05/06 08:52:34;;;;;;;4.70;4.03;;;21.10;99.90;;;;;;5018828;28;20467;-94
2022/05/06 08:55:01;;;;;;;5.10;4.50;;;21.10;99.90;;;;;;5024265;28;20477;-93
2022/05/06 08:57:29;;;;;;;5.43;4.80;;;21.20;99.90;;;;;;5011352;28;20558;-92
2022/05/06 08:59:54;;;;;;;5.37;4.50;;;21.30;99.90;;;;;;5006897;28;20527;-90
2022/05/06 09:02:20;;;;;;;5.27;4.23;;;21.40;99.90;;;;;;4997831;28;20563;-91
2022/05/06 09:04:46;;;;;;;4.60;4.27;;;21.50;99.90;;;;;;5008917;28;20197;-92
2022/05/06 09:07:20;;;;;;;5.07;4.10;;;21.50;99.90;;;;;;5032143;28;20966;-91
2022/05/06 09:10:09;;;;;;;4.50;4.10;;;21.50;99.90;;;;;;5023059;28;20425;-91
2022/05/06 09:12:41;;;;;;;5.30;4.87;;;21.60;99.90;;;;;;4997853;28;21215;-93
2022/05/06 09:17:52;;;;;;;5.70;5.13;;;21.70;99.90;;;;;;5030208;28;20512;-92
2022/05/06 09:20:20;;;;;;;5.17;4.70;;;21.80;99.90;;;;;;5015611;28;20450;-92
2022/05/06 09:22:47;;;;;;;6.80;4.70;;;21.80;99.90;;;;;;5003755;28;20739;-93
2022/05/06 09:25:39;;;;;;;5.50;4.67;;;21.80;99.90;;;;;;5020031;28;20413;-91
2022/05/06 09:28:06;;;;;;;4.30;3.90;;;21.90;99.90;;;;;;5054750;28;20503;-92
2022/05/06 09:30:34;;;;;;;5.80;4.23;;;22.00;99.90;;;;;;5029487;28;20486;-92
2022/05/06 09:33:00;;;;;;;5.23;4.83;;;22.00;99.90;;;;;;5002335;28;20490;-91
2022/05/06 09:35:27;;;;;;;4.57;3.80;;;22.00;99.90;;;;;;5012636;28;20529;-91
2022/05/06 09:37:54;;;;;;;4.53;4.13;;;22.10;99.90;;;;;;5032972;28;20218;-92
2022/05/06 09:40:28;;;;;;;4.87;3.93;;;22.10;99.90;;;;;;5022734;28;20431;-91
2022/05/06 09:42:54;;;;;;;7.73;4.50;;;22.10;99.90;;;;;;5035660;28;20446;-93
2022/05/06 09:45:33;;;;;;;10.10;8.07;;;22.20;99.90;;;;;;5017148;28;20481;-89
2022/05/06 09:48:01;;;;;;;5.30;4.20;;;22.20;99.90;;;;;;5019034;28;20612;-91
2022/05/06 09:50:41;;;;;;;3.97;3.67;;;22.30;99.90;;;;;;5017877;28;20412;-91
2022/05/06 09:53:09;;;;;;;6.07;4.33;;;22.30;99.90;;;;;;5030906;28;20495;-90
2022/05/06 09:55:40;;;;;;;4.87;4.10;;;22.40;99.90;;;;;;5000646;28;20779;-90
2022/05/06 09:58:06;;;;;;;4.73;4.33;;;22.40;99.90;;;;;;5015805;28;20479;-90
2022/05/06 10:00:33;;;;;;;7.50;4.23;;;22.50;99.90;;;;;;5034912;28;20434;-91
2022/05/06 10:03:00;;;;;;;5.07;4.60;;;22.60;99.90;;;;;;5002740;28;20547;-91
2022/05/06 10:05:28;;;;;;;4.50;4.10;;;22.60;99.90;;;;;;4995654;28;21003;-91
2022/05/06 10:08:15;;;;;;;4.80;4.30;;;22.70;99.90;;;;;;5010790;28;20928;-91
2022/05/06 10:10:48;;;;;;;5.13;4.30;;;22.80;99.90;;;;;;5012908;28;20473;-89
2022/05/06 10:13:22;;;;;;;5.50;4.30;;;22.90;99.90;;;;;;5034586;27;20707;-90
2022/05/06 10:15:49;;;;;;;5.03;4.37;;;22.90;99.90;;;;;;5074806;27;20401;-90
2022/05/06 10:18:44;;;;;;;4.33;3.93;;;23.00;99.90;;;;;;5134491;27;20463;-91
2022/05/06 10:21:11;;;;;;;4.20;3.80;;;23.00;99.00;;;;;;5009018;27;20456;-92
2022/05/06 10:23:48;;;;;;;5.27;4.47;;;23.00;99.70;;;;;;5099980;27;20434;-90
2022/05/06 10:26:33;;;;;;;4.70;4.30;;;23.00;99.80;;;;;;5085479;28;20412;-91
2022/05/06 10:34:29;;;;;;;4.80;4.40;;;23.10;99.90;;;;;;5138064;27;20461;-92
2022/05/06 10:37:00;;;;;;;5.20;4.70;;;23.20;99.90;;;;;;5136817;27;20448;-91
2022/05/06 10:39:32;;;;;;;5.80;3.57;;;23.30;99.90;;;;;;5101931;27;20436;-92
2022/05/06 10:42:16;;;;;;;4.33;3.90;;;23.30;99.90;;;;;;5049599;28;20459;-91
2022/05/06 10:44:48;;;;;;;5.13;4.10;;;23.40;99.30;;;;;;5068464;27;20421;-91
2022/05/06 10:47:14;;;;;;;4.30;3.87;;;23.40;98.70;;;;;;5072120;27;20821;-91
2022/05/06 10:49:39;;;;;;;5.33;4.83;;;23.40;98.90;;;;;;5071970;27;20437;-89
2022/05/06 10:52:14;;;;;;;5.10;4.53;;;23.40;98.30;;;;;;5074159;27;20200;-90
2022/05/06 10:54:47;;;;;;;4.50;4.10;;;23.50;98.70;;;;;;5105032;27;20660;-89
2022/05/06 10:57:14;;;;;;;5.03;4.53;;;23.50;99.30;;;;;;5016055;28;20590;-91
2022/05/06 11:00:02;;;;;;;5.90;5.13;;;23.60;99.90;;;;;;5024223;28;20958;-91
2022/05/06 11:02:29;;;;;;;8.23;4.83;;;23.60;99.00;;;;;;5013128;28;20799;-91
2022/05/06 11:05:00;;;;;;;8.93;5.37;;;23.70;99.30;;;;;;4996120;28;20416;-91
2022/05/06 11:07:26;;;;;;;6.20;4.40;;;23.70;99.70;;;;;;5013776;28;20434;-92
2022/05/06 11:09:52;;;;;;;4.87;4.37;;;23.70;99.10;;;;;;5018003;28;20411;-89
2022/05/06 11:12:35;;;;;;;4.33;3.77;;;23.80;99.30;;;;;;5076065;28;20496;-90
2022/05/06 11:15:03;;;;;;;4.83;3.70;;;23.80;98.30;;;;;;5085676;28;20186;-91
2022/05/06 11:17:31;;;;;;;4.13;3.53;;;23.80;96.60;;;;;;5103936;28;20545;-90
2022/05/06 11:19:58;;;;;;;5.10;3.90;;;23.70;95.90;;;;;;5096577;28;20907;-90
2022/05/06 11:22:25;;;;;;;4.20;3.77;;;23.70;95.30;;;;;;5104272;28;20468;-91
2022/05/06 11:24:58;;;;;;;6.00;4.13;;;23.60;95.40;;;;;;5107892;28;20464;-90
2022/05/06 11:27:24;;;;;;;4.47;4.03;;;23.60;95.00;;;;;;5111770;28;20461;-91
2022/05/06 11:29:51;;;;;;;4.03;3.73;;;23.60;95.30;;;;;;5113932;28;20426;-90
2022/05/06 11:32:18;;;;;;;4.13;3.73;;;23.60;95.30;;;;;;5113415;28;20457;-91
2022/05/06 11:34:54;;;;;;;5.30;4.20;;;23.60;95.60;;;;;;5095392;28;20421;-90
2022/05/06 11:37:32;;;;;;;4.53;3.90;;;23.60;95.40;;;;;;5098441;28;20884;-90
2022/05/06 11:42:42;;;;;;;4.30;3.90;;;23.70;95.70;;;;;;5123017;28;20456;-89
2022/05/06 11:48:07;;;;;;;5.23;3.93;;;23.70;94.50;;;;;;5114509;28;20262;-91
2022/05/06 11:50:33;;;;;;;5.40;3.90;;;23.70;93.50;;;;;;5093143;28;20399;-90
2022/05/06 11:53:04;;;;;;;3.40;3.13;;;23.60;93.80;;;;;;5103620;28;20506;-91
2022/05/06 11:55:31;;;;;;;5.57;4.40;;;23.60;94.20;;;;;;5094092;28;20981;-91
2022/05/06 11:57:58;;;;;;;4.13;3.80;;;23.60;95.10;;;;;;5116271;28;20518;-91
2022/05/06 12:00:25;;;;;;;4.23;3.57;;;23.60;94.20;;;;;;5127160;27;20437;-91
2022/05/06 12:02:51;;;;;;;4.77;4.30;;;23.70;93.70;;;;;;5096519;28;20469;-91
2022/05/06 12:05:18;;;;;;;4.50;4.10;;;23.70;94.00;;;;;;5097292;28;20416;-90
2022/05/06 12:07:45;;;;;;;3.63;3.27;;;23.70;93.80;;;;;;5097943;28;20457;-91
2022/05/06 12:10:29;;;;;;;3.77;3.37;;;23.70;93.70;;;;;;5089211;28;20422;-92
2022/05/06 12:12:58;;;;;;;5.07;3.63;;;23.70;93.10;;;;;;5015635;28;20449;-91
2022/05/06 12:15:47;;;;;;;3.90;3.50;;;23.60;93.30;;;;;;5032865;28;20435;-92
2022/05/06 12:18:22;;;;;;;4.87;3.27;;;23.70;93.50;;;;;;5024674;28;21056;-91
2022/05/06 12:20:48;;;;;;;4.23;3.50;;;23.70;93.60;;;;;;5010563;28;20411;-90
2022/05/06 12:23:15;;;;;;;4.07;3.73;;;23.70;93.30;;;;;;5033341;27;21007;-91
2022/05/06 12:25:41;;;;;;;5.63;3.20;;;23.70;93.40;;;;;;5011652;28;20416;-91
2022/05/06 12:28:13;;;;;;;4.20;3.40;;;23.70;93.40;;;;;;5011927;28;20491;-91
2022/05/06 12:30:40;;;;;;;6.07;3.30;;;23.80;93.00;;;;;;5013584;28;20997;-91
2022/05/06 12:33:10;;;;;;;3.50;3.20;;;23.80;93.50;;;;;;5015148;28;20457;-91
2022/05/06 12:36:02;;;;;;;4.30;3.90;;;23.80;93.10;;;;;;5034032;28;20418;-91
2022/05/06 12:38:39;;;;;;;3.83;3.20;;;23.90;93.00;;;;;;5045105;28;20517;-91
2022/05/06 12:41:32;;;;;;;5.43;3.77;;;23.90;92.60;;;;;;5031731;28;20434;-91
2022/05/06 12:44:18;;;;;;;4.97;4.47;;;23.90;93.00;;;;;;5031309;28;20504;-91
2022/05/06 12:46:44;;;;;;;3.80;3.50;;;23.90;94.00;;;;;;5004910;28;20938;-92
2022/05/06 12:51:54;;;;;;;7.87;3.60;;;24.00;93.40;;;;;;5011226;28;20551;-92
2022/05/06 12:54:20;;;;;;;4.03;3.73;;;24.10;93.40;;;;;;5012947;28;20435;-90
2022/05/06 12:56:46;;;;;;;4.67;3.70;;;24.10;92.70;;;;;;4998786;28;20230;-91
2022/05/06 12:59:12;;;;;;;4.60;3.80;;;24.10;92.50;;;;;;5014541;28;20466;-91
2022/05/06 13:01:39;;;;;;;6.40;3.70;;;24.10;92.20;;;;;;5005797;28;20529;-92
2022/05/06 13:04:04;;;;;;;3.90;3.60;;;24.10;92.50;;;;;;4995350;28;20182;-91
2022/05/06 13:06:31;;;;;;;4.17;3.77;;;24.20;93.20;;;;;;5015014;28;20475;-92
2022/05/06 13:08:57;;;;;;;3.53;3.23;;;24.20;92.10;;;;;;4993286;28;20273;-92
2022/05/06 13:11:23;;;;;;;4.30;3.90;;;24.20;92.00;;;;;;5040738;28;20524;-92
2022/05/06 13:13:48;;;;;;;4.37;3.77;;;24.20;92.20;;;;;;5077768;28;20419;-90
2022/05/06 13:16:14;;;;;;;4.83;3.50;;;24.20;92.30;;;;;;5075043;28;20434;-91
2022/05/06 13:18:40;;;;;;;5.23;3.50;;;24.20;93.10;;;;;;5080227;28;20685;-91
2022/05/06 13:21:06;;;;;;;3.70;3.40;;;24.30;91.80;;;;;;5115464;28;20250;-90
2022/05/06 13:23:32;;;;;;;4.97;3.70;;;24.30;91.40;;;;;;5098190;28;20477;-90
2022/05/06 13:26:02;;;;;;;4.20;3.63;;;24.30;91.30;;;;;;5115554;28;20170;-90
2022/05/06 13:28:27;;;;;;;5.23;3.47;;;24.30;91.40;;;;;;5094841;28;20221;-90
2022/05/06 13:30:53;;;;;;;9.20;3.40;;;24.40;91.50;;;;;;5094923;28;20407;-89
2022/05/06 13:33:19;;;;;;;4.00;3.60;;;24.40;90.90;;;;;;5094720;28;20198;-90
2022/05/06 13:35:45;;;;;;;3.77;3.40;;;24.40;91.10;;;;;;5095211;28;20730;-89
2022/05/06 13:38:11;;;;;;;4.00;3.60;;;24.40;91.30;;;;;;5095678;28;20324;-92